Normal, IL

10:12 AM CST on March 04, 2015 (GMT -0600)
Across from IWU | Change Station
CLOSE
Current Station
Personal Weather Station
Location: Bloomington, IL
Elevation: 810 ft
Nearby Weather Stations

Elev 810 ft 40.49 °N, 88.99 °W | Updated 1 minute ago

Partly Cloudy
Partly Cloudy
16.7 °F
Feels Like 17 °F
N
3.0
Wind Variable Wind from WNW
Gusts 16.0 mph

Today
High -- | Low -- °F
--% Chance of Precip.
Yesterday
High -- | Low -- °F
Precip. -- in
6:25 AM 5:50 PM
Waxing Gibbous, 99% visible
Pressure 30.22 in
Visibility 10.0 miles
Clouds Scattered Clouds 8000 ft
Windchill 17 °F
Dew Point 9 °F
Humidity 70%
Rainfall 0.00 in
Snow Depth Not available.
UV 3 out of 12
Pollen .10 out of 12
Air Quality Not available.
Flu Activity Not available.
METAR KBMI 041556Z 33016KT 10SM SCT080 M09/M14 A3016 RMK AO2 T10881138 SLP234

More Conditions Fewer Conditions

Pressure 30.22 in
Visibility 10.0 miles
Clouds Scattered Clouds 8000 ft
Windchill 17 °F
Dew Point 9 °F
Humidity 70%
Rainfall 0.00 in
Snow Depth Not available.
UV 3 out of 12
Pollen .10 out of 12
Air Quality Not available.
Flu Activity Not available.
METAR KBMI 041556Z 33016KT 10SM SCT080 M09/M14 A3016 RMK AO2 T10881138 SLP234

More Conditions Fewer Conditions

10-Day Weather Forecast

Almanac

Astronomy

Mar. 04, 2015 Rise Set
Actual Time
Civil Twilight
Nautical Twilight
Astronomical Twilight
Moon
Length of Visible Light
Length of Day
Tomorrow will be .
, % of the Moon is Illuminated

Today's Extremes

State Highs State Lows

Community

WunderPhotos

Upload Photos

1,802,500 photos uploaded!

WunderBlogs® & News

Nearby

Air Quality

  Air Quality AQ Index Pollutant
Not available.

Snow Depth

Station Depth Elevation

Earthquake Activity

City Distance Mag. Time & Date
Minimum magnitude displayed is 2.5.

Coastal Water Temperatures

Place Temperature

Nearby Weather Stations